Terminal Aerodrome Forecast
Issued by NWS Flagstaff, AZ

Home | Current Version | Previous Version | Text Only | Print | Product List | Glossary On
Versions: 1 2 3 4 5 6 7 8 9 10 11 12 13 14 15 16
000
FTUS45 KFGZ 230414 AAB
TAFFLG
TAF AMD
KFLG 230414Z 2304/2324 22020G30KT P6SM SCT020 BKN040
      TEMPO 2304/2306 5SM -SN
     FM230700 22015G25KT 4SM -SN BKN030
      TEMPO 2309/2313 2SM -SN BKN025
     FM231500 22015G25KT 3SM -SN BKN025 OVC040=

USA.gov is the U.S. government's official web portal to all federal, state and local government web resources and services.